createdAt,value
2023-02-26T00:00:15.380Z,12.23
2023-02-26T00:02:42.973Z,9.80
2023-02-26T00:05:10.216Z,14.13
2023-02-26T00:07:36.943Z,10.18
2023-02-26T00:10:05.164Z,11.88
2023-02-26T00:12:32.031Z,8.25
2023-02-26T00:14:59.042Z,5.25
2023-02-26T00:18:05.766Z,8.13
2023-02-26T00:20:33.230Z,8.82
2023-02-26T00:23:00.048Z,13.15
2023-02-26T00:25:26.534Z,6.75
2023-02-26T00:27:53.394Z,7.00
2023-02-26T00:30:20.208Z,6.88
2023-02-26T00:32:47.044Z,11.52
2023-02-26T00:35:16.005Z,7.00
2023-02-26T00:37:57.958Z,11.27
2023-02-26T00:40:46.277Z,6.32
2023-02-26T00:43:17.538Z,10.80
2023-02-26T00:45:51.359Z,9.15
2023-02-26T00:48:42.510Z,9.95
2023-02-26T00:51:13.098Z,9.48
2023-02-26T00:53:50.044Z,7.20
2023-02-26T00:56:16.530Z,9.73
2023-02-26T00:58:43.110Z,8.45
2023-02-26T01:01:09.604Z,9.68
2023-02-26T01:03:36.721Z,6.78
2023-02-26T01:06:04.295Z,8.88
2023-02-26T01:08:38.726Z,7.10
2023-02-26T01:11:05.519Z,7.43
2023-02-26T01:13:32.213Z,5.47
2023-02-26T01:16:10.863Z,6.28
2023-02-26T01:18:52.043Z,9.05
2023-02-26T01:21:25.392Z,7.15
2023-02-26T01:23:52.772Z,7.75
2023-02-26T01:26:24.292Z,6.22
2023-02-26T01:28:51.133Z,5.07
2023-02-26T01:31:48.973Z,6.93
2023-02-26T01:34:25.562Z,9.38
2023-02-26T01:36:58.208Z,6.40
2023-02-26T01:39:39.845Z,7.05
2023-02-26T01:42:17.902Z,7.55
2023-02-26T01:44:50.274Z,4.28
2023-02-26T01:47:39.420Z,6.80
2023-02-26T01:50:13.945Z,6.53
2023-02-26T01:52:49.188Z,8.52
2023-02-26T01:55:19.274Z,7.72
2023-02-26T01:57:45.838Z,7.18
2023-02-26T02:00:12.863Z,7.45
2023-02-26T02:02:40.119Z,3.53
2023-02-26T02:05:19.582Z,4.82
2023-02-26T02:07:47.177Z,5.38
2023-02-26T02:10:13.803Z,3.92
2023-02-26T02:12:51.174Z,7.57
2023-02-26T02:15:28.760Z,6.53
2023-02-26T02:18:29.337Z,3.45
2023-02-26T02:21:15.155Z,5.65
2023-02-26T02:23:41.583Z,6.13
2023-02-26T02:26:10.966Z,6.30
2023-02-26T02:28:40.450Z,7.55
2023-02-26T02:31:20.665Z,8.13
2023-02-26T02:33:51.802Z,7.03
2023-02-26T02:36:44.549Z,9.27
2023-02-26T02:39:25.061Z,8.32
2023-02-26T02:42:00.781Z,7.80
2023-02-26T02:44:29.870Z,2.45
2023-02-26T02:46:59.420Z,3.85
2023-02-26T02:49:39.507Z,9.13
2023-02-26T02:52:13.962Z,9.93
2023-02-26T02:54:48.786Z,4.65
2023-02-26T02:57:23.125Z,4.53
2023-02-26T02:59:57.948Z,5.40
2023-02-26T03:02:37.066Z,8.32
2023-02-26T03:05:03.796Z,5.10
2023-02-26T03:07:34.952Z,8.80
2023-02-26T03:10:01.616Z,3.30
2023-02-26T03:12:32.458Z,7.28
2023-02-26T03:15:00.554Z,7.63
2023-02-26T03:17:33.517Z,10.60
2023-02-26T03:20:26.233Z,6.22
2023-02-26T03:23:04.642Z,7.47
2023-02-26T03:25:36.586Z,7.18
2023-02-26T03:28:15.306Z,3.97
2023-02-26T03:31:02.716Z,7.03
2023-02-26T03:33:45.039Z,4.88
2023-02-26T03:36:19.230Z,10.13
2023-02-26T03:38:56.755Z,8.00
2023-02-26T03:41:32.414Z,6.55
2023-02-26T03:44:05.800Z,5.88
2023-02-26T03:46:42.218Z,9.30
2023-02-26T03:49:28.954Z,11.90
2023-02-26T03:51:57.077Z,6.70
2023-02-26T03:54:29.849Z,12.07
2023-02-26T03:56:56.538Z,6.47
2023-02-26T03:59:23.114Z,5.95
2023-02-26T04:01:59.138Z,4.70
2023-02-26T04:04:29.068Z,10.75
2023-02-26T04:06:56.601Z,8.73
2023-02-26T04:09:23.657Z,9.80
2023-02-26T04:11:53.030Z,5.97
2023-02-26T04:14:19.595Z,9.43
2023-02-26T04:16:46.567Z,8.23
2023-02-26T04:19:13.138Z,5.88
2023-02-26T04:21:39.728Z,3.53
2023-02-26T04:24:06.318Z,6.53
2023-02-26T04:26:32.813Z,7.72
2023-02-26T04:28:59.290Z,6.00
2023-02-26T04:31:25.797Z,5.20
2023-02-26T04:33:52.275Z,8.93
2023-02-26T04:36:18.950Z,5.03
2023-02-26T04:38:45.463Z,7.88
2023-02-26T04:41:12.307Z,4.90
2023-02-26T04:43:38.835Z,5.05
2023-02-26T04:46:05.613Z,3.80
2023-02-26T04:48:32.201Z,8.38
2023-02-26T04:50:58.742Z,6.35
2023-02-26T04:53:25.184Z,5.65
2023-02-26T04:55:52.490Z,4.18
2023-02-26T04:58:19.288Z,6.80
2023-02-26T05:00:50.626Z,4.47
2023-02-26T05:03:17.939Z,3.60
2023-02-26T05:05:45.681Z,3.00
2023-02-26T05:08:12.266Z,5.55
2023-02-26T05:10:38.836Z,5.65
2023-02-26T05:13:05.579Z,8.43
2023-02-26T05:15:32.300Z,7.30
2023-02-26T05:17:58.876Z,3.83
2023-02-26T05:20:25.441Z,7.00
2023-02-26T05:22:51.881Z,10.45
2023-02-26T05:25:18.509Z,7.22
2023-02-26T05:27:45.047Z,5.68
2023-02-26T05:30:14.702Z,6.53
2023-02-26T05:32:42.140Z,4.38
2023-02-26T05:35:10.082Z,5.93
2023-02-26T05:37:37.373Z,3.60
2023-02-26T05:40:05.980Z,8.50
2023-02-26T05:42:32.558Z,4.55
2023-02-26T05:44:59.011Z,6.43
2023-02-26T05:47:25.474Z,7.20
2023-02-26T05:49:52.033Z,3.28
2023-02-26T05:52:18.652Z,4.43
2023-02-26T05:54:45.192Z,5.43
2023-02-26T05:57:11.776Z,5.57
2023-02-26T05:59:39.044Z,5.45
2023-02-26T06:02:05.575Z,4.65
2023-02-26T06:04:32.078Z,4.13
2023-02-26T06:06:58.525Z,10.30
2023-02-26T06:09:25.033Z,4.65
2023-02-26T06:11:51.597Z,4.10
2023-02-26T06:14:18.133Z,2.65
2023-02-26T06:16:44.765Z,1.75
2023-02-26T06:19:11.384Z,2.83
2023-02-26T06:21:38.067Z,4.00
2023-02-26T06:24:04.848Z,3.60
2023-02-26T06:26:31.449Z,6.68
2023-02-26T06:28:58.260Z,7.68
2023-02-26T06:31:24.788Z,4.45
2023-02-26T06:33:51.291Z,4.57
2023-02-26T06:36:17.801Z,5.10
2023-02-26T06:38:45.512Z,7.80
2023-02-26T06:41:12.517Z,6.30
2023-02-26T06:43:39.569Z,7.28
2023-02-26T06:46:06.493Z,8.32
2023-02-26T06:48:33.379Z,7.70
2023-02-26T06:50:59.958Z,8.13
2023-02-26T06:53:26.484Z,4.68
2023-02-26T06:55:53.730Z,6.18
2023-02-26T06:58:21.008Z,5.72
2023-02-26T07:00:47.623Z,7.18
2023-02-26T07:03:19.209Z,5.20
2023-02-26T07:05:46.184Z,7.35
2023-02-26T07:08:13.523Z,5.65
2023-02-26T07:10:40.840Z,5.90
2023-02-26T07:13:07.561Z,10.70
2023-02-26T07:15:34.229Z,7.78
2023-02-26T07:18:01.303Z,6.82
2023-02-26T07:20:28.310Z,4.72
2023-02-26T07:22:55.032Z,8.15
2023-02-26T07:25:21.672Z,7.65
2023-02-26T07:27:48.160Z,4.78
2023-02-26T07:30:15.307Z,7.47
2023-02-26T07:32:41.878Z,5.57
2023-02-26T07:35:08.829Z,9.82
2023-02-26T07:37:35.520Z,7.75
2023-02-26T07:40:02.008Z,8.55
2023-02-26T07:42:28.499Z,7.47
2023-02-26T07:44:55.045Z,5.00
2023-02-26T07:47:21.510Z,5.68
2023-02-26T07:49:48.260Z,10.13
2023-02-26T07:52:14.766Z,4.28
2023-02-26T07:54:41.318Z,6.63
2023-02-26T07:57:07.792Z,6.63
2023-02-26T07:59:34.259Z,3.15
2023-02-26T08:02:00.889Z,0.80
2023-02-26T08:04:27.427Z,8.38
2023-02-26T08:06:54.742Z,4.07
2023-02-26T08:09:22.302Z,4.05
2023-02-26T08:11:48.799Z,7.40
2023-02-26T08:14:15.436Z,2.20
2023-02-26T08:16:43.098Z,4.90
2023-02-26T08:19:09.912Z,6.75
2023-02-26T08:21:36.406Z,3.83
2023-02-26T08:24:02.913Z,7.47
2023-02-26T08:26:30.507Z,4.95
2023-02-26T08:28:56.967Z,0.80
2023-02-26T08:31:23.556Z,4.20
2023-02-26T08:33:50.135Z,4.15
2023-02-26T08:36:16.639Z,3.00
2023-02-26T08:38:43.088Z,7.32
2023-02-26T08:41:09.588Z,7.30
2023-02-26T08:43:36.687Z,2.15
2023-02-26T08:46:03.243Z,2.40
2023-02-26T08:48:29.810Z,5.13
2023-02-26T08:50:56.307Z,4.63
2023-02-26T08:53:22.860Z,6.43
2023-02-26T08:55:50.863Z,4.25
2023-02-26T08:58:21.068Z,2.67
2023-02-26T09:00:47.806Z,5.28
2023-02-26T09:03:14.675Z,8.48
2023-02-26T09:05:41.278Z,3.85
2023-02-26T09:08:08.720Z,4.68
2023-02-26T09:10:35.349Z,5.40
2023-02-26T09:13:01.888Z,5.97
2023-02-26T09:15:28.410Z,4.88
2023-02-26T09:17:54.939Z,5.03
2023-02-26T09:20:21.512Z,10.60
2023-02-26T09:22:47.992Z,3.85
2023-02-26T09:25:15.954Z,3.00
2023-02-26T09:27:42.491Z,10.00
2023-02-26T09:30:10.077Z,6.32
2023-02-26T09:32:36.749Z,3.53
2023-02-26T09:35:04.529Z,7.30
2023-02-26T09:37:31.356Z,3.60
2023-02-26T09:39:57.976Z,4.65
2023-02-26T09:42:32.190Z,8.25
2023-02-26T09:45:00.092Z,17.73
2023-02-26T09:47:59.283Z,16.63
2023-02-26T09:50:36.849Z,21.27
2023-02-26T09:53:12.646Z,4.63
2023-02-26T09:55:45.133Z,4.57
2023-02-26T09:58:16.026Z,9.90
2023-02-26T10:01:07.787Z,10.43
2023-02-26T10:03:54.958Z,0.90
2023-02-26T10:06:23.542Z,2.05
2023-02-26T10:09:06.250Z,6.88
2023-02-26T10:11:39.836Z,1.75
2023-02-26T10:14:16.619Z,6.15
2023-02-26T10:16:47.258Z,4.03
2023-02-26T10:19:31.077Z,7.72
2023-02-26T10:22:12.391Z,3.80
2023-02-26T10:25:06.239Z,6.97
2023-02-26T10:27:45.011Z,2.90
2023-02-26T10:30:26.777Z,1.52
2023-02-26T10:33:22.081Z,6.72
2023-02-26T10:35:58.415Z,7.80
2023-02-26T10:38:30.397Z,2.55
2023-02-26T10:41:03.741Z,2.35
2023-02-26T10:43:36.488Z,9.27
2023-02-26T10:46:26.096Z,4.78
2023-02-26T10:49:09.261Z,3.70
2023-02-26T10:51:39.663Z,6.60
2023-02-26T10:54:32.796Z,5.82
2023-02-26T10:56:59.318Z,6.03
2023-02-26T10:59:26.919Z,5.80
2023-02-26T11:01:54.923Z,4.18
2023-02-26T11:04:24.610Z,3.60
2023-02-26T11:06:55.109Z,1.55
2023-02-26T11:09:30.849Z,4.05
2023-02-26T11:12:15.827Z,3.78
2023-02-26T11:14:43.156Z,4.97
2023-02-26T11:17:36.040Z,4.15
2023-02-26T11:20:14.999Z,0.70
2023-02-26T11:22:47.252Z,2.00
2023-02-26T11:25:17.468Z,4.15
2023-02-26T11:27:46.200Z,2.63
2023-02-26T11:30:19.277Z,3.08
2023-02-26T11:32:49.851Z,3.78
2023-02-26T11:35:18.315Z,5.13
2023-02-26T11:37:55.981Z,2.92
2023-02-26T11:40:32.819Z,6.35
2023-02-26T11:43:03.822Z,2.92
2023-02-26T11:45:30.446Z,0.82
2023-02-26T11:48:10.955Z,3.58
2023-02-26T11:50:48.405Z,2.72
2023-02-26T11:53:23.894Z,3.28
2023-02-26T11:56:00.797Z,1.95
2023-02-26T11:58:34.351Z,3.78
2023-02-26T12:01:02.486Z,7.57
2023-02-26T12:03:33.462Z,5.75
2023-02-26T12:06:02.137Z,2.38
2023-02-26T12:08:38.566Z,3.75
2023-02-26T12:11:08.048Z,3.83
2023-02-26T12:13:49.757Z,6.75
2023-02-26T12:16:16.240Z,4.22
2023-02-26T12:19:06.335Z,9.50
2023-02-26T12:22:07.541Z,2.90
2023-02-26T12:24:53.598Z,2.30
2023-02-26T12:27:37.167Z,5.07
2023-02-26T12:30:40.206Z,5.20
2023-02-26T12:33:17.262Z,0.40
2023-02-26T12:35:54.859Z,1.85
2023-02-26T12:39:13.011Z,3.92
2023-02-26T12:41:54.585Z,5.03
2023-02-26T12:44:33.629Z,2.92
2023-02-26T12:47:27.361Z,7.07
2023-02-26T12:50:15.011Z,3.85
2023-02-26T12:52:47.664Z,10.52
2023-02-26T12:55:21.683Z,6.85
2023-02-26T12:58:02.929Z,2.42
2023-02-26T13:00:38.456Z,2.42
2023-02-26T13:03:05.200Z,8.50
2023-02-26T13:05:36.708Z,5.10
2023-02-26T13:08:17.917Z,8.32
2023-02-26T13:10:55.431Z,3.47
2023-02-26T13:13:30.455Z,5.45
2023-02-26T13:16:11.055Z,6.22
2023-02-26T13:18:43.623Z,3.92
2023-02-26T13:21:15.016Z,4.53
2023-02-26T13:23:51.461Z,4.78
2023-02-26T13:26:18.978Z,2.60
2023-02-26T13:28:51.108Z,2.85
2023-02-26T13:31:27.687Z,14.40
2023-02-26T13:33:57.272Z,9.68
2023-02-26T13:36:26.947Z,3.38
2023-02-26T13:38:56.277Z,8.90
2023-02-26T13:41:36.226Z,10.05
2023-02-26T13:44:38.544Z,10.02
2023-02-26T13:47:32.862Z,2.20
2023-02-26T13:50:05.523Z,4.90
2023-02-26T13:52:35.599Z,5.10
2023-02-26T13:55:05.475Z,6.20
2023-02-26T13:57:48.012Z,11.27
2023-02-26T14:00:26.483Z,10.07
2023-02-26T14:03:17.502Z,8.90
2023-02-26T14:05:46.961Z,7.93
2023-02-26T14:08:45.956Z,3.80
2023-02-26T14:11:33.808Z,6.03
2023-02-26T14:14:13.295Z,2.08
2023-02-26T14:16:44.436Z,13.27
2023-02-26T14:19:13.914Z,12.88
2023-02-26T14:21:53.867Z,13.13
2023-02-26T14:24:51.751Z,8.60
2023-02-26T14:27:18.186Z,7.18
2023-02-26T14:30:00.552Z,7.80
2023-02-26T14:32:31.758Z,5.63
2023-02-26T14:35:20.995Z,10.18
2023-02-26T14:38:03.058Z,4.82
2023-02-26T14:40:36.518Z,18.60
2023-02-26T14:43:06.009Z,3.80
2023-02-26T14:45:39.217Z,5.50
2023-02-26T14:48:07.977Z,4.07
2023-02-26T14:51:05.484Z,4.25
2023-02-26T14:54:02.694Z,2.58
2023-02-26T14:56:37.850Z,1.88
2023-02-26T14:59:22.736Z,4.47
2023-02-26T15:02:16.645Z,3.05
2023-02-26T15:05:03.676Z,5.95
2023-02-26T15:07:35.631Z,3.65
2023-02-26T15:10:02.034Z,1.55
2023-02-26T15:13:02.546Z,6.03
2023-02-26T15:16:06.477Z,5.47
2023-02-26T15:18:51.401Z,4.00
2023-02-26T15:21:20.828Z,5.87
2023-02-26T15:23:51.792Z,3.60
2023-02-26T15:26:23.500Z,3.30
2023-02-26T15:28:52.021Z,4.55
2023-02-26T15:31:33.157Z,3.03
2023-02-26T15:34:01.087Z,3.47
2023-02-26T15:36:29.599Z,2.83
2023-02-26T15:38:59.754Z,3.63
2023-02-26T15:41:30.538Z,2.85
2023-02-26T15:44:14.106Z,3.65
2023-02-26T15:46:45.455Z,3.88
2023-02-26T15:49:24.598Z,3.85
2023-02-26T15:51:53.316Z,5.25
2023-02-26T15:54:23.793Z,3.88
2023-02-26T15:56:50.948Z,3.63
2023-02-26T15:59:24.004Z,3.47
2023-02-26T16:01:50.618Z,1.65
2023-02-26T16:04:20.907Z,9.63
2023-02-26T16:06:58.333Z,6.03
2023-02-26T16:09:34.615Z,4.30
2023-02-26T16:12:07.665Z,1.40
2023-02-26T16:14:38.602Z,3.13
2023-02-26T16:17:07.695Z,5.65
2023-02-26T16:19:41.498Z,4.05
2023-02-26T16:22:33.834Z,5.10
2023-02-26T16:25:06.219Z,4.93
2023-02-26T16:27:34.916Z,3.72
2023-02-26T16:30:03.870Z,2.53
2023-02-26T16:32:33.964Z,4.35
2023-02-26T16:35:08.301Z,15.65
2023-02-26T16:37:37.842Z,22.08
2023-02-26T16:40:25.534Z,10.02
2023-02-26T16:42:54.966Z,1.45
2023-02-26T16:45:36.562Z,9.02
2023-02-26T16:48:14.384Z,3.70
2023-02-26T16:50:41.153Z,11.15
2023-02-26T17:52:00.463Z,24.35
2023-02-26T17:54:27.053Z,12.95
2023-02-26T17:56:53.937Z,15.05
2023-02-26T17:59:20.459Z,17.70
2023-02-26T18:01:46.974Z,21.75
2023-02-26T18:04:13.780Z,13.50
2023-02-26T18:06:40.478Z,9.63
2023-02-26T18:09:07.435Z,8.55
2023-02-26T18:11:34.009Z,11.55
2023-02-26T18:14:01.254Z,8.23
2023-02-26T18:16:40.215Z,14.57
2023-02-26T18:19:07.286Z,9.02
2023-02-26T18:21:34.210Z,13.02
2023-02-26T18:24:01.194Z,11.15
2023-02-26T18:26:32.034Z,15.38
2023-02-26T18:28:58.583Z,12.70
2023-02-26T18:31:34.425Z,15.07
2023-02-26T18:34:03.204Z,19.00
2023-02-26T18:36:35.635Z,16.13
2023-02-26T18:39:07.159Z,12.77
2023-02-26T18:41:34.416Z,11.63
2023-02-26T18:44:00.986Z,16.05
2023-02-26T18:46:27.495Z,18.88
2023-02-26T18:48:58.013Z,14.90
2023-02-26T18:51:25.004Z,17.10
2023-02-26T18:53:51.915Z,15.90
2023-02-26T18:56:18.528Z,14.85
2023-02-26T18:58:44.999Z,14.43
2023-02-26T19:01:11.520Z,11.45
2023-02-26T19:03:37.965Z,13.23
2023-02-26T19:06:08.760Z,17.77
2023-02-26T19:08:35.851Z,14.65
2023-02-26T19:11:02.334Z,18.33
2023-02-26T19:13:29.082Z,17.63
2023-02-26T19:15:55.622Z,14.55
2023-02-26T19:18:22.237Z,12.82
2023-02-26T19:20:48.749Z,13.57
2023-02-26T19:23:15.270Z,11.43
2023-02-26T19:25:42.907Z,14.77
2023-02-26T19:28:09.813Z,14.77
2023-02-26T19:30:36.584Z,13.82
2023-02-26T19:33:03.110Z,13.05
2023-02-26T19:35:30.668Z,12.75
2023-02-26T19:37:57.259Z,14.80
2023-02-26T19:40:24.716Z,13.73
2023-02-26T19:42:51.203Z,13.95
2023-02-26T19:45:17.757Z,11.35
2023-02-26T19:47:44.431Z,13.25
2023-02-26T19:50:12.607Z,14.85
2023-02-26T19:52:39.100Z,13.75
2023-02-26T19:55:07.310Z,14.57
2023-02-26T19:57:34.117Z,9.73
2023-02-26T20:00:00.644Z,13.00
2023-02-26T20:02:27.390Z,11.32
2023-02-26T20:04:54.038Z,11.88
2023-02-26T20:07:22.463Z,8.50
2023-02-26T20:09:49.846Z,11.77
2023-02-26T20:12:16.425Z,12.70
2023-02-26T20:14:43.722Z,10.13
2023-02-26T20:17:13.106Z,11.85
2023-02-26T20:19:39.662Z,11.15
2023-02-26T20:22:06.212Z,11.02
2023-02-26T20:24:35.707Z,7.68
2023-02-26T20:27:02.201Z,12.30
2023-02-26T20:29:28.692Z,7.07
2023-02-26T20:31:55.291Z,10.23
2023-02-26T20:34:22.041Z,7.95
2023-02-26T20:36:49.926Z,10.10
2023-02-26T20:39:19.076Z,8.45
2023-02-26T20:41:45.697Z,8.13
2023-02-26T20:44:12.262Z,9.38
2023-02-26T20:46:39.019Z,7.32
2023-02-26T20:49:11.432Z,7.60
2023-02-26T20:51:42.237Z,5.95
2023-02-26T20:54:10.724Z,10.90
2023-02-26T20:56:37.224Z,8.98
2023-02-26T20:59:04.104Z,11.02
2023-02-26T21:01:35.566Z,16.05
2023-02-26T21:04:05.155Z,11.65
2023-02-26T21:06:32.308Z,9.18
2023-02-26T21:09:00.243Z,6.88
2023-02-26T21:11:30.954Z,7.93
2023-02-26T21:13:58.351Z,7.75
2023-02-26T21:16:25.912Z,8.18
2023-02-26T21:18:52.382Z,8.48
2023-02-26T21:21:18.974Z,9.85
2023-02-26T21:23:45.509Z,7.63
2023-02-26T21:26:12.256Z,7.50
2023-02-26T21:28:38.954Z,5.60
2023-02-26T21:31:05.469Z,8.52
2023-02-26T21:33:32.014Z,13.77
2023-02-26T21:35:58.564Z,15.45
2023-02-26T21:38:25.048Z,16.42
2023-02-26T21:40:54.340Z,10.85
2023-02-26T21:43:20.874Z,14.27
2023-02-26T21:45:51.157Z,11.00
2023-02-26T21:48:17.773Z,16.00
2023-02-26T21:50:44.280Z,14.02
2023-02-26T21:53:10.890Z,12.40
2023-02-26T21:55:37.422Z,12.93
2023-02-26T21:58:03.956Z,9.88
2023-02-26T22:00:30.514Z,11.25
2023-02-26T22:02:57.100Z,9.98
2023-02-26T22:05:23.752Z,8.82
2023-02-26T22:07:52.171Z,9.30
2023-02-26T22:10:18.641Z,9.68
2023-02-26T22:12:45.242Z,9.40
2023-02-26T22:15:11.756Z,9.90
2023-02-26T22:17:38.271Z,10.48
2023-02-26T22:20:09.617Z,11.02
2023-02-26T22:22:37.235Z,8.82
2023-02-26T22:25:06.076Z,7.63
2023-02-26T22:27:33.118Z,10.60
2023-02-26T22:29:59.962Z,9.82
2023-02-26T22:32:26.762Z,9.55
2023-02-26T22:34:55.576Z,9.50
2023-02-26T22:37:22.173Z,10.07
2023-02-26T22:39:48.727Z,9.13
2023-02-26T22:42:15.539Z,10.90
2023-02-26T22:44:42.076Z,9.38
2023-02-26T22:47:10.208Z,9.07
2023-02-26T22:49:37.072Z,9.88
2023-02-26T22:52:05.834Z,9.63
2023-02-26T22:54:34.206Z,9.05
2023-02-26T22:57:00.680Z,9.60
2023-02-26T22:59:27.188Z,10.63
2023-02-26T23:01:53.676Z,7.97
2023-02-26T23:04:20.283Z,9.20
2023-02-26T23:06:46.868Z,9.30
2023-02-26T23:09:13.345Z,9.98
2023-02-26T23:11:39.786Z,13.80
2023-02-26T23:14:06.655Z,12.82
2023-02-26T23:16:33.646Z,13.65
2023-02-26T23:19:00.131Z,10.82
2023-02-26T23:21:28.202Z,8.38
2023-02-26T23:23:54.883Z,9.07
2023-02-26T23:26:21.388Z,16.63
2023-02-26T23:28:47.859Z,22.10
2023-02-26T23:31:14.399Z,10.43
2023-02-26T23:33:40.939Z,10.23
2023-02-26T23:36:07.852Z,7.45
2023-02-26T23:38:34.353Z,16.63
2023-02-26T23:41:00.872Z,14.05
2023-02-26T23:43:27.456Z,10.77
2023-02-26T23:45:54.001Z,15.52
2023-02-26T23:48:20.589Z,12.68
2023-02-26T23:50:50.364Z,7.22
2023-02-26T23:53:17.030Z,9.15
2023-02-26T23:55:43.537Z,9.05
2023-02-26T23:58:10.012Z,9.50
